createdAt,value
2023-02-07T00:01:23.403Z,8.57
2023-02-07T00:03:50.586Z,8.95
2023-02-07T00:06:23.525Z,8.10
2023-02-07T00:08:50.425Z,8.47
2023-02-07T00:11:20.157Z,8.85
2023-02-07T00:13:50.098Z,8.10
2023-02-07T00:16:16.910Z,8.63
2023-02-07T00:18:43.322Z,8.10
2023-02-07T00:21:12.781Z,8.27
2023-02-07T00:23:39.996Z,9.23
2023-02-07T00:26:07.922Z,8.73
2023-02-07T00:28:35.470Z,8.73
2023-02-07T00:31:26.847Z,8.55
2023-02-07T00:33:56.338Z,8.38
2023-02-07T00:36:25.039Z,8.52
2023-02-07T00:38:51.480Z,8.93
2023-02-07T00:41:18.666Z,8.40
2023-02-07T00:43:46.882Z,8.68
2023-02-07T00:46:14.449Z,8.57
2023-02-07T00:48:41.014Z,8.77
2023-02-07T00:51:10.415Z,8.80
2023-02-07T00:53:37.899Z,8.57
2023-02-07T00:56:04.458Z,9.02
2023-02-07T00:58:31.269Z,9.05
2023-02-07T01:00:57.761Z,9.35
2023-02-07T01:03:24.293Z,9.32
2023-02-07T01:05:50.778Z,8.70
2023-02-07T01:08:17.236Z,8.50
2023-02-07T01:10:45.539Z,8.43
2023-02-07T01:13:13.264Z,8.77
2023-02-07T01:15:41.287Z,8.75
2023-02-07T01:18:08.107Z,9.32
2023-02-07T01:20:35.104Z,8.90
2023-02-07T01:23:04.611Z,8.75
2023-02-07T01:25:31.628Z,9.73
2023-02-07T01:27:58.177Z,8.93
2023-02-07T01:30:24.625Z,9.30
2023-02-07T01:32:51.256Z,9.50
2023-02-07T01:35:17.844Z,10.23
2023-02-07T01:37:44.370Z,9.13
2023-02-07T01:40:12.658Z,9.38
2023-02-07T01:42:39.501Z,10.50
2023-02-07T01:45:28.311Z,9.23
2023-02-07T01:47:58.322Z,10.05
2023-02-07T01:50:25.221Z,9.52
2023-02-07T01:52:53.698Z,10.60
2023-02-07T01:55:25.470Z,10.07
2023-02-07T01:57:53.766Z,10.65
2023-02-07T02:00:20.822Z,10.90
2023-02-07T02:02:47.457Z,11.20
2023-02-07T02:05:15.926Z,12.23
2023-02-07T02:07:42.469Z,11.48
2023-02-07T02:10:20.029Z,11.77
2023-02-07T02:12:53.438Z,10.88
2023-02-07T02:15:43.241Z,12.43
2023-02-07T02:18:31.711Z,11.65
2023-02-07T02:21:30.222Z,11.65
2023-02-07T02:24:30.158Z,12.70
2023-02-07T02:27:17.129Z,11.75
2023-02-07T02:30:17.334Z,12.40
2023-02-07T02:33:02.174Z,12.60
2023-02-07T02:35:49.731Z,12.55
2023-02-07T02:38:57.384Z,13.73
2023-02-07T02:41:31.055Z,12.98
2023-02-07T02:44:04.433Z,13.38
2023-02-07T02:46:35.560Z,13.45
2023-02-07T02:49:04.889Z,13.35
2023-02-07T02:51:32.405Z,14.57
2023-02-07T02:54:00.513Z,13.05
2023-02-07T02:56:44.501Z,13.90
2023-02-07T02:59:33.246Z,14.25
2023-02-07T03:02:29.788Z,14.38
2023-02-07T03:05:13.484Z,13.95
2023-02-07T03:07:59.494Z,15.38
2023-02-07T03:10:36.316Z,14.70
2023-02-07T03:13:22.874Z,16.17
2023-02-07T03:16:05.043Z,15.57
2023-02-07T03:18:43.583Z,15.75
2023-02-07T03:21:19.926Z,17.05
2023-02-07T03:23:49.376Z,15.00
2023-02-07T03:26:16.359Z,17.13
2023-02-07T03:28:46.168Z,16.98
2023-02-07T03:31:16.765Z,16.90
2023-02-07T03:33:47.364Z,16.65
2023-02-07T03:36:22.059Z,17.92
2023-02-07T03:38:48.514Z,16.08
2023-02-07T03:41:28.772Z,17.52
2023-02-07T03:43:58.348Z,18.00
2023-02-07T03:46:24.844Z,17.60
2023-02-07T03:48:51.316Z,18.55
2023-02-07T03:51:17.712Z,17.63
2023-02-07T03:53:44.152Z,17.88
2023-02-07T03:56:10.556Z,17.73
2023-02-07T03:58:37.038Z,17.85
2023-02-07T04:01:03.580Z,18.63
2023-02-07T04:03:30.031Z,17.70
2023-02-07T04:05:56.561Z,19.42
2023-02-07T04:08:22.966Z,18.60
2023-02-07T04:11:03.452Z,19.77
2023-02-07T04:13:30.388Z,18.67
2023-02-07T04:15:57.080Z,18.33
2023-02-07T04:18:23.677Z,19.80
2023-02-07T04:20:50.072Z,19.23
2023-02-07T04:23:16.532Z,19.75
2023-02-07T04:25:42.974Z,19.45
2023-02-07T04:28:09.453Z,17.98
2023-02-07T04:30:35.904Z,18.63
2023-02-07T04:33:02.326Z,18.38
2023-02-07T04:35:28.728Z,18.58
2023-02-07T04:37:55.122Z,18.20
2023-02-07T04:40:24.614Z,18.60
2023-02-07T04:42:51.034Z,17.73
2023-02-07T04:45:17.452Z,17.90
2023-02-07T04:47:43.854Z,18.85
2023-02-07T04:50:10.559Z,19.50
2023-02-07T04:52:37.416Z,18.40
2023-02-07T04:55:04.047Z,18.38
2023-02-07T04:57:30.478Z,17.98
2023-02-07T04:59:57.148Z,19.15
2023-02-07T05:02:24.081Z,19.30
2023-02-07T05:04:50.648Z,18.98
2023-02-07T05:07:17.167Z,17.63
2023-02-07T05:09:43.651Z,18.20
2023-02-07T05:12:10.207Z,18.40
2023-02-07T05:14:36.599Z,18.20
2023-02-07T05:17:03.047Z,16.85
2023-02-07T05:19:30.017Z,17.63
2023-02-07T05:21:56.464Z,18.60
2023-02-07T05:24:22.976Z,17.65
2023-02-07T05:26:49.408Z,17.58
2023-02-07T05:29:15.806Z,17.10
2023-02-07T05:32:00.891Z,17.35
2023-02-07T05:34:27.323Z,17.73
2023-02-07T05:36:53.722Z,17.77
2023-02-07T05:39:20.084Z,17.60
2023-02-07T05:41:46.481Z,18.10
2023-02-07T05:44:12.896Z,18.45
2023-02-07T05:46:39.602Z,18.58
2023-02-07T05:49:06.060Z,17.48
2023-02-07T05:51:32.476Z,18.98
2023-02-07T05:53:58.916Z,17.58
2023-02-07T05:56:25.356Z,19.08
2023-02-07T05:58:51.762Z,18.30
2023-02-07T06:01:18.179Z,18.90
2023-02-07T06:03:44.678Z,18.52
2023-02-07T06:06:11.136Z,18.77
2023-02-07T06:08:37.632Z,19.48
2023-02-07T06:11:04.231Z,18.88
2023-02-07T06:13:30.660Z,18.50
2023-02-07T06:15:57.421Z,18.05
2023-02-07T06:18:24.778Z,19.25
2023-02-07T06:20:51.687Z,19.13
2023-02-07T06:23:19.287Z,19.48
2023-02-07T06:25:45.707Z,21.90
2023-02-07T06:28:12.269Z,26.23
2023-02-07T06:30:38.693Z,21.90
2023-02-07T06:33:05.128Z,24.55
2023-02-07T06:35:31.564Z,23.20
2023-02-07T06:37:58.339Z,22.58
2023-02-07T06:40:24.888Z,22.67
2023-02-07T06:42:51.315Z,23.48
2023-02-07T06:45:17.776Z,21.67
2023-02-07T06:47:44.192Z,21.73
2023-02-07T06:50:10.651Z,21.63
2023-02-07T06:52:37.080Z,23.05
2023-02-07T06:55:04.033Z,21.88
2023-02-07T06:57:30.492Z,21.40
2023-02-07T06:59:56.927Z,22.55
2023-02-07T07:02:23.775Z,23.17
2023-02-07T07:04:50.206Z,22.80
2023-02-07T07:07:16.668Z,23.70
2023-02-07T07:09:43.478Z,23.98
2023-02-07T07:12:09.888Z,22.60
2023-02-07T07:14:36.321Z,23.20
2023-02-07T07:17:02.726Z,22.23
2023-02-07T07:19:29.179Z,23.52
2023-02-07T07:21:55.670Z,23.63
2023-02-07T07:24:22.074Z,23.05
2023-02-07T07:26:50.139Z,21.83
2023-02-07T07:29:20.160Z,23.02
2023-02-07T07:31:47.012Z,23.40
2023-02-07T07:34:14.175Z,22.17
2023-02-07T07:36:40.729Z,22.67
2023-02-07T07:39:08.898Z,23.40
2023-02-07T07:41:35.397Z,23.23
2023-02-07T07:44:02.038Z,22.70
2023-02-07T07:46:29.692Z,22.77
2023-02-07T07:48:56.195Z,24.38
2023-02-07T07:51:23.308Z,28.17
2023-02-07T07:53:50.046Z,27.42
2023-02-07T07:56:16.563Z,26.60
2023-02-07T07:58:43.003Z,25.20
2023-02-07T08:01:09.569Z,25.20
2023-02-07T08:03:36.368Z,26.83
2023-02-07T08:06:02.909Z,26.42
2023-02-07T08:08:29.316Z,25.98
2023-02-07T08:11:00.434Z,25.73
2023-02-07T08:13:29.532Z,24.85
2023-02-07T08:15:56.201Z,23.90
2023-02-07T08:18:22.694Z,22.38
2023-02-07T08:20:49.781Z,24.40
2023-02-07T08:23:16.163Z,24.13
2023-02-07T08:25:42.741Z,25.23
2023-02-07T08:28:10.199Z,23.90
2023-02-07T08:30:36.641Z,25.60
2023-02-07T08:33:03.239Z,25.27
2023-02-07T08:35:29.775Z,25.40
2023-02-07T08:37:58.080Z,23.95
2023-02-07T08:40:25.695Z,24.40
2023-02-07T08:42:52.451Z,25.48
2023-02-07T08:45:19.018Z,24.02
2023-02-07T08:47:46.129Z,23.40
2023-02-07T08:50:14.020Z,23.98
2023-02-07T08:52:41.023Z,25.50
2023-02-07T08:55:08.446Z,24.80
2023-02-07T08:57:35.540Z,24.63
2023-02-07T09:00:03.793Z,25.73
2023-02-07T09:02:30.437Z,24.83
2023-02-07T09:04:56.881Z,24.92
2023-02-07T09:07:23.492Z,22.85
2023-02-07T09:09:50.007Z,24.67
2023-02-07T09:12:16.769Z,24.23
2023-02-07T09:14:43.256Z,25.40
2023-02-07T09:17:09.720Z,24.67
2023-02-07T09:19:36.641Z,25.58
2023-02-07T09:22:04.090Z,25.05
2023-02-07T09:24:30.540Z,25.25
2023-02-07T09:26:56.962Z,24.67
2023-02-07T09:29:23.374Z,24.08
2023-02-07T09:31:49.854Z,25.38
2023-02-07T09:34:16.786Z,24.80
2023-02-07T09:36:43.403Z,24.70
2023-02-07T09:39:10.170Z,25.35
2023-02-07T09:41:40.808Z,24.35
2023-02-07T09:44:15.993Z,25.85
2023-02-07T09:47:02.991Z,25.50
2023-02-07T09:49:34.801Z,24.13
2023-02-07T09:52:03.769Z,24.55
2023-02-07T09:54:37.426Z,23.48
2023-02-07T09:57:09.998Z,24.75
2023-02-07T09:59:58.241Z,23.63
2023-02-07T10:02:36.036Z,22.65
2023-02-07T10:05:07.174Z,23.33
2023-02-07T10:07:33.608Z,22.40
2023-02-07T10:10:00.330Z,23.25
2023-02-07T10:12:45.581Z,22.10
2023-02-07T10:15:30.806Z,22.52
2023-02-07T10:18:15.986Z,23.60
2023-02-07T10:21:00.906Z,21.52
2023-02-07T10:23:49.207Z,22.10
2023-02-07T10:26:34.478Z,22.50
2023-02-07T10:29:27.793Z,23.60
2023-02-07T10:31:59.655Z,22.83
2023-02-07T10:34:32.355Z,22.45
2023-02-07T10:36:58.787Z,22.00
2023-02-07T10:39:38.545Z,22.75
2023-02-07T10:42:05.770Z,23.45
2023-02-07T10:44:32.302Z,22.17
2023-02-07T10:47:04.508Z,23.45
2023-02-07T10:49:33.699Z,21.50
2023-02-07T10:52:17.380Z,20.52
2023-02-07T10:55:01.615Z,23.73
2023-02-07T11:00:01.602Z,21.05
2023-02-07T11:02:28.048Z,20.65
2023-02-07T11:04:55.949Z,22.50
2023-02-07T11:07:22.937Z,22.45
2023-02-07T11:09:49.547Z,22.35
2023-02-07T11:12:25.504Z,21.27
2023-02-07T11:15:05.497Z,22.52
2023-02-07T11:17:33.040Z,22.00
2023-02-07T11:20:07.209Z,22.42
2023-02-07T11:22:34.017Z,22.33
2023-02-07T11:25:06.790Z,20.65
2023-02-07T11:27:41.771Z,21.67
2023-02-07T11:30:16.322Z,20.27
2023-02-07T11:32:44.009Z,19.65
2023-02-07T11:35:20.895Z,19.30
2023-02-07T11:37:59.030Z,20.05
2023-02-07T11:40:39.473Z,18.98
2023-02-07T11:43:09.350Z,18.83
2023-02-07T11:45:38.838Z,18.17
2023-02-07T11:48:06.188Z,17.85
2023-02-07T11:50:40.925Z,19.27
2023-02-07T11:53:07.758Z,17.35
2023-02-07T11:55:39.968Z,17.13
2023-02-07T11:58:36.667Z,18.35
2023-02-07T12:01:05.639Z,16.40
2023-02-07T12:03:41.089Z,16.73
2023-02-07T12:06:13.743Z,16.80
2023-02-07T12:08:41.979Z,15.63
2023-02-07T12:11:14.991Z,15.80
2023-02-07T12:13:55.488Z,15.37
2023-02-07T12:16:49.556Z,15.48
2023-02-07T12:19:18.708Z,14.80
2023-02-07T12:22:10.770Z,14.77
2023-02-07T12:24:45.192Z,14.82
2023-02-07T12:27:16.074Z,15.18
2023-02-07T12:29:52.037Z,15.20
2023-02-07T12:32:47.093Z,13.38
2023-02-07T12:35:57.009Z,13.90
2023-02-07T12:38:34.559Z,13.57
2023-02-07T12:41:14.776Z,14.80
2023-02-07T12:44:06.316Z,14.30
2023-02-07T12:46:57.709Z,15.23
2023-02-07T12:49:59.325Z,14.50
2023-02-07T12:52:44.550Z,14.45
2023-02-07T12:55:33.940Z,14.32
2023-02-07T12:58:27.389Z,14.60
2023-02-07T13:01:02.194Z,15.05
2023-02-07T13:03:50.928Z,13.93
2023-02-07T13:06:46.733Z,14.75
2023-02-07T13:09:29.324Z,14.18
2023-02-07T13:12:30.355Z,15.13
2023-02-07T13:15:16.996Z,15.57
2023-02-07T13:17:47.271Z,15.88
2023-02-07T13:20:38.934Z,15.85
2023-02-07T13:23:14.483Z,16.42
2023-02-07T13:25:43.592Z,16.08
2023-02-07T13:28:20.950Z,16.08
2023-02-07T13:30:49.151Z,17.20
2023-02-07T13:33:27.294Z,15.73
2023-02-07T13:35:58.451Z,15.90
2023-02-07T13:38:44.026Z,15.98
2023-02-07T13:41:33.857Z,16.00
2023-02-07T13:44:11.063Z,16.02
2023-02-07T13:46:57.313Z,16.42
2023-02-07T13:49:29.661Z,15.32
2023-02-07T13:52:05.434Z,16.33
2023-02-07T13:54:51.470Z,16.30
2023-02-07T13:58:10.290Z,16.20
2023-02-07T14:01:09.873Z,15.43
2023-02-07T14:03:36.848Z,15.05
2023-02-07T14:06:23.506Z,16.38
2023-02-07T14:09:03.195Z,16.95
2023-02-07T14:11:47.157Z,16.02
2023-02-07T14:14:24.230Z,15.52
2023-02-07T14:17:01.542Z,17.13
2023-02-07T14:19:40.169Z,16.35
2023-02-07T14:22:28.626Z,18.10
2023-02-07T14:25:05.462Z,18.05
2023-02-07T14:27:41.411Z,18.08
2023-02-07T14:30:19.041Z,17.92
2023-02-07T14:33:11.338Z,19.40
2023-02-07T14:35:58.162Z,18.75
2023-02-07T14:38:31.904Z,19.30
2023-02-07T14:41:12.575Z,20.95
2023-02-07T14:43:44.606Z,19.70
2023-02-07T14:46:18.386Z,18.40
2023-02-07T14:48:58.246Z,19.23
2023-02-07T14:51:38.570Z,18.35
2023-02-07T14:54:22.251Z,19.13
2023-02-07T14:56:54.109Z,19.17
2023-02-07T14:59:28.808Z,18.75
2023-02-07T15:01:55.624Z,18.80
2023-02-07T15:04:22.047Z,19.38
2023-02-07T15:06:49.038Z,18.13
2023-02-07T15:09:23.583Z,17.75
2023-02-07T15:11:59.867Z,17.85
2023-02-07T15:14:34.431Z,17.27
2023-02-07T15:17:01.130Z,17.13
2023-02-07T15:19:40.670Z,17.80
2023-02-07T15:22:17.214Z,18.10
2023-02-07T15:24:52.088Z,18.00
2023-02-07T15:27:24.309Z,16.48
2023-02-07T15:29:59.606Z,16.95
2023-02-07T15:32:30.725Z,16.08
2023-02-07T15:34:58.185Z,17.23
2023-02-07T15:37:26.277Z,17.45
2023-02-07T15:39:54.349Z,16.75
2023-02-07T15:42:21.276Z,15.95
2023-02-07T15:44:55.817Z,15.65
2023-02-07T15:47:28.219Z,16.73
2023-02-07T15:50:08.818Z,16.25
2023-02-07T15:52:37.428Z,15.43
2023-02-07T15:55:15.921Z,15.57
2023-02-07T15:57:42.877Z,15.15
2023-02-07T16:00:17.358Z,15.43
2023-02-07T16:02:52.554Z,15.35
2023-02-07T16:05:26.103Z,15.35
2023-02-07T16:07:54.082Z,15.32
2023-02-07T16:10:23.576Z,14.80
2023-02-07T16:13:01.053Z,14.38
2023-02-07T16:15:33.603Z,15.93
2023-02-07T16:18:01.873Z,15.20
2023-02-07T16:20:31.240Z,14.82
2023-02-07T16:23:00.776Z,14.55
2023-02-07T16:25:33.474Z,15.27
2023-02-07T16:28:01.257Z,16.38
2023-02-07T16:30:38.561Z,15.95
2023-02-07T16:33:06.014Z,14.95
2023-02-07T16:35:32.735Z,15.60
2023-02-07T16:37:59.441Z,16.15
2023-02-07T16:40:26.715Z,15.35
2023-02-07T16:42:55.325Z,15.90
2023-02-07T16:45:25.694Z,15.65
2023-02-07T16:47:52.713Z,16.25
2023-02-07T16:50:24.651Z,15.93
2023-02-07T16:52:53.226Z,17.65
2023-02-07T16:55:20.708Z,16.73
2023-02-07T16:57:49.100Z,16.70
2023-02-07T17:00:19.495Z,15.93
2023-02-07T17:02:48.457Z,16.48
2023-02-07T17:05:16.120Z,17.33
2023-02-07T17:07:43.466Z,16.52
2023-02-07T17:10:27.518Z,17.55
2023-02-07T17:12:54.237Z,18.92
2023-02-07T17:15:21.505Z,19.75
2023-02-07T17:17:48.259Z,18.63
2023-02-07T17:20:23.509Z,19.98
2023-02-07T17:22:51.527Z,20.17
2023-02-07T17:25:19.620Z,19.27
2023-02-07T17:27:46.611Z,19.67
2023-02-07T17:30:24.871Z,20.83
2023-02-07T17:32:51.874Z,19.67
2023-02-07T17:35:20.581Z,20.83
2023-02-07T17:37:50.639Z,21.00
2023-02-07T17:40:23.138Z,21.23
2023-02-07T17:42:49.967Z,20.40
2023-02-07T17:45:16.559Z,20.90
2023-02-07T17:47:44.297Z,21.90
2023-02-07T17:50:16.466Z,20.98
2023-02-07T17:52:42.878Z,22.42
2023-02-07T17:55:09.321Z,21.88
2023-02-07T17:57:35.786Z,25.27
2023-02-07T18:00:02.524Z,24.60
2023-02-07T18:02:39.147Z,24.10
2023-02-07T18:05:06.914Z,23.90
2023-02-07T18:07:33.345Z,25.02
2023-02-07T18:09:59.807Z,23.80
2023-02-07T18:12:26.311Z,23.75
2023-02-07T18:14:53.208Z,23.05
2023-02-07T18:17:20.472Z,24.83
2023-02-07T18:19:47.109Z,23.20
2023-02-07T18:22:13.524Z,24.17
2023-02-07T18:24:39.947Z,22.27
2023-02-07T18:27:06.328Z,23.23
2023-02-07T18:29:32.805Z,22.17
2023-02-07T18:31:59.464Z,23.58
2023-02-07T18:34:25.942Z,22.58
2023-02-07T18:36:52.424Z,22.40
2023-02-07T18:39:19.633Z,23.02
2023-02-07T18:41:46.009Z,22.63
2023-02-07T18:44:13.206Z,22.27
2023-02-07T18:46:40.178Z,23.55
2023-02-07T18:49:06.929Z,21.85
2023-02-07T18:51:33.975Z,21.95
2023-02-07T18:54:00.451Z,22.35
2023-02-07T18:56:27.170Z,22.08
2023-02-07T18:58:56.469Z,22.08
2023-02-07T19:01:28.589Z,23.70
2023-02-07T19:03:56.274Z,22.70
2023-02-07T19:06:28.739Z,22.50
2023-02-07T19:08:55.494Z,23.50
2023-02-07T19:11:22.438Z,22.65
2023-02-07T19:13:49.153Z,22.80
2023-02-07T19:16:18.986Z,22.58
2023-02-07T19:18:46.219Z,21.15
2023-02-07T19:21:19.039Z,23.65
2023-02-07T19:23:45.559Z,23.27
2023-02-07T19:26:12.032Z,24.10
2023-02-07T19:28:38.858Z,23.90
2023-02-07T19:31:11.036Z,24.17
2023-02-07T19:33:37.528Z,22.75
2023-02-07T19:36:07.879Z,24.02
2023-02-07T19:38:34.586Z,22.67
2023-02-07T19:41:02.017Z,21.92
2023-02-07T19:43:28.521Z,22.63
2023-02-07T19:45:54.919Z,22.25
2023-02-07T19:48:22.073Z,22.67
2023-02-07T19:50:57.673Z,23.40
2023-02-07T19:53:24.205Z,23.02
2023-02-07T19:55:50.681Z,22.65
2023-02-07T19:58:17.085Z,22.17
2023-02-07T20:00:45.304Z,22.67
2023-02-07T20:03:11.852Z,22.17
2023-02-07T20:05:44.496Z,21.15
2023-02-07T20:08:15.228Z,20.80
2023-02-07T20:10:45.737Z,20.88
2023-02-07T20:13:13.268Z,21.35
2023-02-07T20:15:41.036Z,22.70
2023-02-07T20:18:09.194Z,20.13
2023-02-07T20:20:40.353Z,21.98
2023-02-07T20:23:07.413Z,21.88
2023-02-07T20:25:34.812Z,21.77
2023-02-07T20:28:01.481Z,20.60
2023-02-07T20:30:27.983Z,21.13
2023-02-07T20:32:54.810Z,21.35
2023-02-07T20:35:22.906Z,21.90
2023-02-07T20:37:49.568Z,22.15
2023-02-07T20:40:17.530Z,20.75
2023-02-07T20:42:44.620Z,21.27
2023-02-07T20:45:11.267Z,21.60
2023-02-07T20:47:38.464Z,21.25
2023-02-07T20:50:06.897Z,23.08
2023-02-07T20:52:33.535Z,23.02
2023-02-07T20:54:59.962Z,22.67
2023-02-07T20:57:26.432Z,22.80
2023-02-07T20:59:52.877Z,22.73
2023-02-07T21:02:19.335Z,21.05
2023-02-07T21:04:45.807Z,21.88
2023-02-07T21:07:12.459Z,21.05
2023-02-07T21:09:39.150Z,21.73
2023-02-07T21:12:06.093Z,22.23
2023-02-07T21:14:33.847Z,22.75
2023-02-07T21:17:06.072Z,23.42
2023-02-07T21:19:36.824Z,21.02
2023-02-07T21:22:03.879Z,20.35
2023-02-07T21:24:30.569Z,22.20
2023-02-07T21:26:57.655Z,22.50
2023-02-07T21:29:25.245Z,21.52
2023-02-07T21:31:52.193Z,20.60
2023-02-07T21:34:21.091Z,21.00
2023-02-07T21:36:49.026Z,20.75
2023-02-07T21:39:16.676Z,20.35
2023-02-07T21:41:45.110Z,19.65
2023-02-07T21:44:12.685Z,20.35
2023-02-07T21:46:42.232Z,20.95
2023-02-07T21:49:14.540Z,20.77
2023-02-07T21:51:42.350Z,20.75
2023-02-07T21:54:09.316Z,21.15
2023-02-07T21:56:38.904Z,20.85
2023-02-07T21:59:07.996Z,21.35
2023-02-07T22:01:36.521Z,20.73
2023-02-07T22:04:04.855Z,21.90
2023-02-07T22:06:32.027Z,21.88
2023-02-07T22:09:00.892Z,21.05
2023-02-07T22:11:32.437Z,21.17
2023-02-07T22:13:59.615Z,20.50
2023-02-07T22:16:28.325Z,20.70
2023-02-07T22:18:56.632Z,21.15
2023-02-07T22:21:29.816Z,21.05
2023-02-07T22:23:58.185Z,21.13
2023-02-07T22:26:26.042Z,22.73
2023-02-07T22:28:53.402Z,20.90
2023-02-07T22:31:22.806Z,20.92
2023-02-07T22:33:52.111Z,20.70
2023-02-07T22:36:21.603Z,21.10
2023-02-07T22:38:48.655Z,21.40
2023-02-07T22:41:15.847Z,20.48
2023-02-07T22:43:42.322Z,20.58
2023-02-07T22:46:17.898Z,21.13
2023-02-07T22:48:45.030Z,21.05
2023-02-07T22:51:20.929Z,21.40
2023-02-07T22:53:49.066Z,21.20
2023-02-07T22:56:15.669Z,21.88
2023-02-07T22:58:42.087Z,22.50
2023-02-07T23:01:19.425Z,22.52
2023-02-07T23:03:46.149Z,20.77
2023-02-07T23:06:12.615Z,22.92
2023-02-07T23:08:39.054Z,22.98
2023-02-07T23:11:10.856Z,23.52
2023-02-07T23:13:37.573Z,23.00
2023-02-07T23:16:04.197Z,24.35
2023-02-07T23:18:31.220Z,22.63
2023-02-07T23:20:57.990Z,24.42
2023-02-07T23:23:24.933Z,22.67
2023-02-07T23:25:51.640Z,23.88
2023-02-07T23:28:18.224Z,25.40
2023-02-07T23:30:45.002Z,23.58
2023-02-07T23:33:12.000Z,24.05
2023-02-07T23:35:38.521Z,25.33
2023-02-07T23:38:06.263Z,24.80
2023-02-07T23:40:33.088Z,25.15
2023-02-07T23:42:59.952Z,24.88
2023-02-07T23:45:26.884Z,25.15
2023-02-07T23:47:54.135Z,24.17
2023-02-07T23:50:22.381Z,23.48
2023-02-07T23:52:48.976Z,23.70
2023-02-07T23:55:15.589Z,23.42
2023-02-07T23:57:42.173Z,23.63
